createdAt,value
2018-08-20T08:01:04.525Z,62.20
2018-08-20T08:03:32.600Z,62.50
2018-08-20T08:06:01.985Z,63.10
2018-08-20T08:08:29.512Z,63.00
2018-08-20T08:10:57.053Z,61.80
2018-08-20T08:13:24.576Z,62.30
2018-08-20T08:15:52.093Z,62.00
2018-08-20T08:18:19.637Z,61.20
2018-08-20T08:20:47.154Z,61.20
2018-08-20T08:23:14.686Z,60.80
2018-08-20T08:25:42.198Z,60.80
2018-08-20T08:28:09.772Z,60.70
2018-08-20T08:30:37.286Z,60.80
2018-08-20T08:33:04.825Z,60.60
2018-08-20T08:35:32.374Z,60.40
2018-08-20T08:37:59.930Z,60.60
2018-08-20T08:40:27.437Z,60.40
2018-08-20T08:42:54.973Z,60.00
2018-08-20T08:45:22.487Z,60.10
2018-08-20T08:47:50.002Z,60.90
2018-08-20T08:50:17.944Z,60.80
2018-08-20T08:52:45.814Z,60.10
2018-08-20T08:55:13.365Z,60.10
2018-08-20T08:57:40.888Z,57.30
2018-08-20T09:00:10.931Z,56.50
2018-08-20T09:02:38.510Z,56.10
2018-08-20T09:05:06.596Z,56.30
2018-08-20T09:07:34.111Z,56.90
2018-08-20T09:10:01.661Z,57.30
2018-08-20T09:12:29.197Z,56.60
2018-08-20T09:14:56.746Z,56.60
2018-08-20T09:17:24.261Z,56.40
2018-08-20T09:19:51.813Z,56.90
2018-08-20T09:22:19.398Z,56.20
2018-08-20T09:24:46.928Z,56.50
2018-08-20T09:27:14.450Z,56.20
2018-08-20T09:29:42.038Z,55.00
2018-08-20T09:32:09.580Z,55.70
2018-08-20T09:34:37.139Z,56.60
2018-08-20T09:37:04.651Z,56.40
2018-08-20T09:39:32.184Z,56.60
2018-08-20T09:41:59.713Z,55.50
2018-08-20T09:44:27.259Z,56.40
2018-08-20T09:46:54.789Z,56.20
2018-08-20T09:49:22.451Z,56.70
2018-08-20T09:51:50.198Z,57.00
2018-08-20T09:54:17.729Z,56.90
2018-08-20T09:56:45.253Z,56.40
2018-08-20T09:59:12.896Z,56.30
2018-08-20T10:01:40.321Z,56.10
2018-08-20T10:04:07.866Z,56.60
2018-08-20T10:06:35.385Z,56.50
2018-08-20T10:09:03.044Z,57.00
2018-08-20T10:11:30.566Z,56.60
2018-08-20T10:13:58.113Z,56.70
2018-08-20T10:16:25.628Z,57.00
2018-08-20T10:18:53.144Z,57.10
2018-08-20T10:21:20.652Z,57.50
2018-08-20T10:23:48.176Z,58.10
2018-08-20T10:26:15.695Z,57.60
2018-08-20T10:28:43.215Z,57.70
2018-08-20T10:31:10.724Z,57.70
2018-08-20T10:33:38.236Z,58.10
2018-08-20T10:36:05.769Z,57.90
2018-08-20T10:38:33.294Z,57.50
2018-08-20T10:41:00.821Z,58.00
2018-08-20T10:43:28.342Z,57.70
2018-08-20T10:46:01.281Z,58.30
2018-08-20T10:48:28.813Z,58.60
2018-08-20T10:50:56.359Z,59.40
2018-08-20T10:53:23.881Z,59.10
2018-08-20T10:55:51.426Z,59.00
2018-08-20T10:58:18.952Z,58.40
2018-08-20T11:00:46.481Z,58.40
2018-08-20T11:03:13.986Z,57.90
2018-08-20T11:05:41.514Z,58.40
2018-08-20T11:08:09.034Z,58.10
2018-08-20T11:10:36.575Z,58.30
2018-08-20T11:13:04.123Z,57.50
2018-08-20T11:15:31.663Z,57.40
2018-08-20T11:17:59.177Z,56.40
2018-08-20T11:20:26.708Z,56.00
2018-08-20T11:22:54.230Z,55.70
2018-08-20T11:25:21.881Z,55.60
2018-08-20T11:27:49.406Z,55.80
2018-08-20T11:30:16.975Z,56.30
2018-08-20T11:32:44.465Z,56.50
2018-08-20T11:35:12.290Z,56.40
2018-08-20T11:37:39.820Z,56.80
2018-08-20T11:40:07.633Z,56.80
2018-08-20T11:42:35.182Z,56.70
2018-08-20T11:45:02.701Z,56.90
2018-08-20T11:47:30.217Z,55.60
2018-08-20T11:49:57.743Z,55.70
2018-08-20T11:52:25.362Z,56.40
2018-08-20T11:54:53.478Z,56.40
2018-08-20T11:57:20.989Z,55.70
2018-08-20T11:59:48.510Z,56.10
2018-08-20T12:02:16.028Z,55.70
2018-08-20T12:04:43.545Z,55.90
2018-08-20T12:07:11.095Z,55.90
2018-08-20T12:09:38.608Z,56.10
2018-08-20T12:12:06.202Z,56.10
2018-08-20T12:14:33.718Z,56.10
2018-08-20T12:17:01.238Z,56.20
2018-08-20T12:19:28.758Z,55.90
2018-08-20T12:21:56.302Z,56.20
2018-08-20T12:24:23.826Z,56.50
2018-08-20T12:26:51.358Z,56.20
2018-08-20T12:29:18.888Z,56.00
2018-08-20T12:31:46.421Z,56.50
2018-08-20T12:34:13.981Z,56.40
2018-08-20T12:36:41.502Z,57.00
2018-08-20T12:39:09.429Z,57.00
2018-08-20T12:41:36.973Z,56.70
2018-08-20T12:44:04.860Z,56.50
2018-08-20T12:46:32.421Z,56.40
2018-08-20T12:48:59.926Z,56.00
2018-08-20T12:51:27.442Z,56.10
2018-08-20T12:53:54.958Z,56.50
2018-08-20T12:56:22.479Z,57.10
2018-08-20T12:58:51.345Z,56.50
2018-08-20T13:01:18.894Z,55.80
2018-08-20T13:03:46.965Z,55.90
2018-08-20T13:06:14.474Z,56.70
2018-08-20T13:08:42.001Z,56.40
2018-08-20T13:11:09.657Z,56.70
2018-08-20T13:13:37.177Z,56.60
2018-08-20T13:16:04.947Z,56.20
2018-08-20T13:18:32.593Z,55.60
2018-08-20T13:21:00.117Z,55.30
2018-08-20T13:23:27.857Z,55.80
2018-08-20T13:25:55.412Z,55.70
2018-08-20T13:28:23.064Z,55.60
2018-08-20T13:30:50.585Z,55.30
2018-08-20T13:33:18.400Z,55.40
2018-08-20T13:35:45.929Z,54.90
2018-08-20T13:38:13.452Z,54.70
2018-08-20T13:40:41.054Z,55.20
2018-08-20T13:43:08.586Z,54.20
2018-08-20T13:45:36.418Z,54.20
2018-08-20T13:48:03.972Z,53.80
2018-08-20T13:50:31.532Z,54.30
2018-08-20T13:52:59.045Z,54.50
2018-08-20T13:55:26.564Z,54.60
2018-08-20T13:57:54.097Z,54.10
2018-08-20T14:00:21.961Z,54.00
2018-08-20T14:02:49.509Z,53.80
2018-08-20T14:05:17.585Z,54.00
2018-08-20T14:07:45.788Z,53.80
2018-08-20T14:10:13.318Z,53.10
2018-08-20T14:12:41.621Z,53.70
2018-08-20T14:15:11.605Z,54.30
2018-08-20T14:17:39.988Z,54.00
2018-08-20T14:20:08.201Z,53.70
2018-08-20T14:22:35.721Z,54.20
2018-08-20T14:25:03.306Z,53.60
2018-08-20T14:27:30.785Z,53.70
2018-08-20T14:29:58.361Z,54.00
2018-08-20T14:32:25.877Z,54.20
2018-08-20T14:34:53.418Z,54.20
2018-08-20T14:37:20.946Z,54.50
2018-08-20T14:39:48.654Z,53.40
2018-08-20T14:42:16.228Z,53.40
2018-08-20T14:44:44.900Z,53.40
2018-08-20T14:47:12.632Z,53.30
2018-08-20T14:49:40.421Z,54.10
2018-08-20T14:52:08.266Z,54.00
2018-08-20T14:54:35.807Z,54.00
2018-08-20T14:57:03.493Z,53.70
2018-08-20T14:59:31.041Z,53.80
2018-08-20T15:01:58.614Z,53.70
2018-08-20T15:04:26.203Z,54.30
2018-08-20T15:07:00.564Z,54.10
2018-08-20T15:09:29.072Z,53.80
2018-08-20T15:11:57.062Z,53.70
2018-08-20T15:14:24.590Z,54.20
2018-08-20T15:16:52.253Z,53.10
2018-08-20T15:19:20.345Z,52.80
2018-08-20T15:21:48.080Z,52.60
2018-08-20T15:24:16.826Z,53.00
2018-08-20T15:26:44.542Z,53.50
2018-08-20T15:29:12.076Z,54.00
2018-08-20T15:31:39.592Z,54.00
2018-08-20T15:34:07.186Z,52.90
2018-08-20T15:36:34.785Z,53.00
2018-08-20T15:39:02.357Z,52.80
2018-08-20T15:41:29.899Z,53.00
2018-08-20T15:43:57.439Z,53.60
2018-08-20T15:46:24.960Z,53.30
2018-08-20T15:48:52.509Z,53.10
2018-08-20T15:51:20.026Z,53.30
2018-08-20T15:53:47.541Z,54.20
2018-08-20T15:56:15.099Z,53.80
2018-08-20T15:58:42.631Z,51.30
2018-08-20T16:01:10.202Z,52.00
2018-08-20T16:03:37.735Z,52.50
2018-08-20T16:06:05.254Z,53.30
2018-08-20T16:08:32.761Z,52.70
2018-08-20T16:11:00.310Z,52.00
2018-08-20T16:13:27.828Z,52.60
2018-08-20T16:15:55.369Z,53.00
2018-08-20T16:18:22.880Z,52.10
2018-08-20T16:20:50.422Z,52.70
2018-08-20T16:23:17.941Z,52.30
2018-08-20T16:25:45.481Z,52.10
2018-08-20T16:28:13.001Z,52.70
2018-08-20T16:30:40.561Z,52.90
2018-08-20T16:33:08.115Z,53.30
2018-08-20T16:35:35.658Z,53.40
2018-08-20T16:38:03.181Z,53.40
2018-08-20T16:40:30.728Z,53.50
2018-08-20T16:42:58.269Z,52.90
2018-08-20T16:45:25.861Z,53.30
2018-08-20T16:47:53.341Z,53.50
2018-08-20T16:50:20.876Z,53.60
2018-08-20T16:52:48.397Z,52.80
2018-08-20T16:55:15.946Z,53.40
2018-08-20T16:57:43.452Z,52.30
2018-08-20T17:00:11.797Z,52.70
2018-08-20T17:02:39.769Z,53.00
2018-08-20T17:05:07.751Z,53.80
2018-08-20T17:07:35.264Z,53.30
